Time;durP1;ratioP1;P1;durP2;ratioP2;P2;SDS_P1;SDS_P2;PMS_P1;PMS_P2;Temp;Humidity;BMP_temperature;BMP_pressure;BME280_temperature;BME280_humidity;BME280_pressure;Samples;Min_cycle;Max_cycle;Signal;HPM_P1;HPM_P2
2022/03/28 00:03:01;;;;;;;4.22;3.58;;;22.30;36.60;;;;;;6323914;27;20134;-41
2022/03/28 00:06:04;;;;;;;4.13;3.53;;;22.30;36.60;;;;;;6322583;27;20038;-40
2022/03/28 00:09:05;;;;;;;3.65;3.22;;;22.30;36.60;;;;;;6311400;27;23150;-40
2022/03/28 00:12:08;;;;;;;3.97;3.50;;;22.20;36.60;;;;;;6319035;27;20139;-41
2022/03/28 00:15:10;;;;;;;3.55;3.08;;;22.30;36.70;;;;;;6324502;27;20034;-41
2022/03/28 00:18:12;;;;;;;3.90;3.28;;;22.20;36.60;;;;;;6305964;27;21040;-40
2022/03/28 00:21:14;;;;;;;4.22;3.30;;;22.30;36.70;;;;;;6305663;27;20130;-40
2022/03/28 00:24:15;;;;;;;;;;;22.30;36.70;;;;;;6324359;27;20147;-40
2022/03/28 00:27:17;;;;;;;3.20;2.72;;;22.20;36.60;;;;;;6322802;27;20030;-41
2022/03/28 00:30:19;;;;;;;3.40;2.80;;;22.30;36.70;;;;;;6324164;27;20181;-42
2022/03/28 00:33:21;;;;;;;3.28;2.97;;;22.30;36.60;;;;;;6326388;27;20075;-41
2022/03/28 00:36:23;;;;;;;3.15;2.85;;;22.30;36.70;;;;;;6325722;27;20975;-40
2022/03/28 00:39:25;;;;;;;3.42;2.72;;;22.20;36.60;;;;;;6307115;27;20035;-41
2022/03/28 00:42:26;;;;;;;3.15;2.72;;;22.30;36.70;;;;;;6326732;27;20152;-40
2022/03/28 00:45:28;;;;;;;3.10;2.58;;;22.30;36.70;;;;;;6325628;27;20053;-40
2022/03/28 00:48:30;;;;;;;3.30;2.80;;;22.30;36.70;;;;;;6321356;27;20166;-41
2022/03/28 00:51:32;;;;;;;3.42;3.00;;;22.30;36.70;;;;;;6320078;27;20134;-40
2022/03/28 00:54:33;;;;;;;3.60;2.70;;;22.20;36.60;;;;;;6326211;27;20042;-40
2022/03/28 00:57:36;;;;;;;3.40;3.03;;;22.30;36.60;;;;;;6321077;27;20889;-43
2022/03/28 01:00:38;;;;;;;3.03;2.50;;;22.20;36.70;;;;;;6306176;27;20160;-40
2022/03/28 01:03:41;;;;;;;3.05;2.67;;;22.30;36.60;;;;;;6321336;27;20618;-40
2022/03/28 01:06:43;;;;;;;3.08;2.78;;;22.30;36.60;;;;;;6285350;27;20124;-40
2022/03/28 01:09:45;;;;;;;3.53;2.90;;;22.20;36.60;;;;;;6314127;27;20135;-42
2022/03/28 01:12:47;;;;;;;3.00;2.70;;;22.30;36.60;;;;;;6291667;27;20163;-41
2022/03/28 01:15:48;;;;;;;3.20;2.70;;;22.10;36.50;;;;;;6312447;27;20390;-41
2022/03/28 01:18:51;;;;;;;2.75;2.55;;;22.20;36.60;;;;;;6317382;27;20032;-41
2022/03/28 01:21:53;;;;;;;3.05;2.75;;;22.20;36.60;;;;;;6313048;27;20573;-42
2022/03/28 01:24:57;;;;;;;2.97;2.67;;;22.20;36.50;;;;;;6309347;27;20414;-42
2022/03/28 01:28:00;;;;;;;3.05;2.75;;;22.20;36.50;;;;;;6296648;27;20046;-41
2022/03/28 01:31:02;;;;;;;3.08;2.70;;;22.20;36.50;;;;;;6297637;27;20043;-42
2022/03/28 01:34:03;;;;;;;3.50;2.83;;;22.20;36.50;;;;;;6317454;27;20039;-41
2022/03/28 01:37:05;;;;;;;3.30;3.00;;;22.20;36.50;;;;;;6311323;27;20402;-42
2022/03/28 01:40:08;;;;;;;2.83;2.50;;;22.10;36.50;;;;;;6313868;27;20991;-40
2022/03/28 01:43:09;;;;;;;2.92;2.60;;;22.20;36.50;;;;;;6314343;27;20359;-41
2022/03/28 01:46:11;;;;;;;2.90;2.60;;;22.20;36.50;;;;;;6316370;27;20150;-40
2022/03/28 01:49:13;;;;;;;3.03;2.40;;;22.10;36.40;;;;;;6294946;27;20031;-41
2022/03/28 01:52:15;;;;;;;3.03;2.72;;;22.10;36.40;;;;;;6314185;27;20565;-40
2022/03/28 01:55:17;;;;;;;3.25;2.60;;;22.10;36.40;;;;;;6316252;27;20302;-40
2022/03/28 01:58:19;;;;;;;2.60;2.40;;;22.10;36.40;;;;;;6287837;27;20262;-40
2022/03/28 02:01:20;;;;;;;2.92;2.63;;;22.10;36.50;;;;;;6313534;27;20377;-41
2022/03/28 02:04:22;;;;;;;3.03;2.72;;;22.10;36.50;;;;;;6316738;27;20043;-40
2022/03/28 02:07:25;;;;;;;2.55;2.30;;;22.10;36.50;;;;;;6313841;27;20462;-40
2022/03/28 02:10:26;;;;;;;2.70;2.50;;;22.20;36.50;;;;;;6310286;27;20535;-40
2022/03/28 02:13:28;;;;;;;2.85;2.50;;;22.10;36.50;;;;;;6288373;27;20546;-41
2022/03/28 02:16:30;;;;;;;3.25;2.72;;;22.10;36.40;;;;;;6283904;27;20127;-40
2022/03/28 02:19:31;;;;;;;3.33;2.88;;;22.10;36.40;;;;;;6305835;27;20599;-41
2022/03/28 02:22:34;;;;;;;3.40;2.58;;;22.10;36.40;;;;;;6306062;27;20039;-42
2022/03/28 02:25:37;;;;;;;3.45;2.83;;;22.00;36.30;;;;;;6315100;27;20046;-40
2022/03/28 02:28:38;;;;;;;3.10;2.80;;;22.00;36.20;;;;;;6313751;27;20887;-41
2022/03/28 02:31:41;;;;;;;3.65;2.97;;;22.10;36.30;;;;;;6307214;27;20352;-40
2022/03/28 02:34:42;;;;;;;3.53;2.70;;;22.00;36.20;;;;;;6325000;27;20833;-42
2022/03/28 02:37:47;;;;;;;3.75;2.80;;;22.10;36.20;;;;;;6319309;27;20886;-40
2022/03/28 02:40:48;;;;;;;3.28;2.70;;;22.10;36.10;;;;;;6323940;27;20040;-40
2022/03/28 02:43:50;;;;;;;3.72;2.63;;;22.00;36.00;;;;;;6320512;27;20410;-41
2022/03/28 02:46:52;;;;;;;3.78;2.92;;;22.20;36.10;;;;;;6310583;27;20050;-40
2022/03/28 02:49:53;;;;;;;3.78;3.00;;;22.00;36.00;;;;;;6312150;27;20489;-41
2022/03/28 02:52:55;;;;;;;4.00;2.80;;;22.00;35.90;;;;;;6308861;27;20050;-41
2022/03/28 02:55:58;;;;;;;3.40;2.63;;;22.00;35.90;;;;;;6288446;27;20043;-40
2022/03/28 02:59:00;;;;;;;3.45;3.03;;;22.00;35.90;;;;;;6306477;27;21101;-40
2022/03/28 03:02:02;;;;;;;2.97;2.67;;;22.00;36.50;;;;;;6310838;27;20360;-40
2022/03/28 03:05:05;;;;;;;2.78;2.50;;;21.90;35.70;;;;;;6313350;27;20064;-42
2022/03/28 03:08:08;;;;;;;3.22;2.90;;;21.90;36.00;;;;;;6315686;27;20553;-42
2022/03/28 03:11:09;;;;;;;3.40;2.58;;;22.00;35.70;;;;;;6293223;27;20372;-40
2022/03/28 03:14:11;;;;;;;3.15;2.60;;;22.00;35.70;;;;;;6285605;27;20501;-41
2022/03/28 03:17:13;;;;;;;3.45;2.70;;;22.00;35.70;;;;;;6312267;27;20036;-40
2022/03/28 03:20:14;;;;;;;2.92;2.30;;;22.00;35.60;;;;;;6320508;27;20039;-42
2022/03/28 03:23:16;;;;;;;;;;;21.90;35.50;;;;;;6318322;27;20874;-40
2022/03/28 03:26:18;;;;;;;3.80;2.80;;;21.80;35.50;;;;;;6296378;27;20060;-42
2022/03/28 03:29:19;;;;;;;;;;;22.00;35.60;;;;;;6309380;27;20125;-39
2022/03/28 03:32:22;;;;;;;2.63;2.33;;;22.00;35.60;;;;;;6305673;27;19927;-39
2022/03/28 03:35:24;;;;;;;3.05;2.33;;;21.90;35.50;;;;;;6314426;27;20357;-40
2022/03/28 03:38:26;;;;;;;2.47;2.08;;;22.00;35.50;;;;;;6318627;27;20142;-39
2022/03/28 03:41:28;;;;;;;3.28;2.55;;;21.90;35.40;;;;;;6327203;27;20146;-40
2022/03/28 03:44:29;;;;;;;;;;;21.90;35.40;;;;;;6305175;27;20521;-41
2022/03/28 03:47:31;;;;;;;2.67;2.45;;;22.00;35.50;;;;;;6309960;27;20327;-40
2022/03/28 03:50:32;;;;;;;2.90;2.60;;;21.90;35.40;;;;;;6327750;27;20149;-40
2022/03/28 03:53:34;;;;;;;2.75;2.47;;;21.90;35.40;;;;;;6326144;27;20043;-41
2022/03/28 03:56:37;;;;;;;3.28;2.50;;;21.90;35.40;;;;;;6322840;27;20811;-40
2022/03/28 03:59:39;;;;;;;2.70;2.25;;;21.90;35.40;;;;;;6316429;27;20085;-40
2022/03/28 04:02:40;;;;;;;;;;;21.90;35.40;;;;;;6318398;27;20317;-41
2022/03/28 04:05:42;;;;;;;;;;;21.90;35.40;;;;;;6312390;27;20209;-39
2022/03/28 04:08:44;;;;;;;2.53;2.20;;;21.90;35.40;;;;;;6314320;27;20277;-40
2022/03/28 04:11:47;;;;;;;2.63;2.42;;;21.90;35.40;;;;;;6313678;27;20450;-39
2022/03/28 04:14:48;;;;;;;3.78;2.80;;;21.80;35.30;;;;;;6304945;27;20269;-40
2022/03/28 04:17:50;;;;;;;2.63;2.17;;;21.90;35.40;;;;;;6278452;27;20308;-40
2022/03/28 04:20:51;;;;;;;3.00;2.40;;;21.80;35.30;;;;;;6290518;27;20440;-40
2022/03/28 04:23:54;;;;;;;2.47;2.28;;;21.90;35.40;;;;;;6300953;27;20035;-39
2022/03/28 04:26:55;;;;;;;2.67;2.08;;;21.80;35.30;;;;;;6289113;27;20373;-41
2022/03/28 04:29:56;;;;;;;;;;;21.70;35.30;;;;;;6309777;27;20499;-40
2022/03/28 04:32:58;;;;;;;3.00;2.15;;;21.70;35.30;;;;;;6308677;27;19977;-40
2022/03/28 04:35:59;;;;;;;;;;;21.80;35.30;;;;;;6292193;27;20181;-40
2022/03/28 04:39:01;;;;;;;2.53;2.15;;;21.80;35.30;;;;;;6302539;27;20286;-39
2022/03/28 04:42:04;;;;;;;2.67;2.20;;;21.80;35.40;;;;;;6308740;27;20413;-39
2022/03/28 04:45:07;;;;;;;2.67;2.13;;;21.80;35.40;;;;;;6308046;27;20166;-42
2022/03/28 04:48:08;;;;;;;2.28;2.08;;;21.80;35.40;;;;;;6305097;27;20422;-41
2022/03/28 04:51:10;;;;;;;2.80;2.28;;;21.80;35.40;;;;;;6303063;27;20538;-39
2022/03/28 04:54:12;;;;;;;;;;;21.80;35.40;;;;;;6306435;27;20051;-43
2022/03/28 04:57:13;;;;;;;2.90;2.40;;;21.70;35.40;;;;;;6301743;27;20134;-40
2022/03/28 05:00:16;;;;;;;;;;;21.80;35.40;;;;;;6313383;27;20534;-40
2022/03/28 05:03:17;;;;;;;2.58;2.38;;;21.70;35.30;;;;;;6303650;27;19927;-40
2022/03/28 05:06:19;;;;;;;3.00;2.60;;;21.40;35.20;;;;;;6310939;27;20415;-40
2022/03/28 05:09:21;;;;;;;2.30;2.10;;;21.70;35.40;;;;;;6312474;27;20035;-41
2022/03/28 05:12:23;;;;;;;2.70;2.35;;;21.70;35.40;;;;;;6301585;27;20107;-40
2022/03/28 05:15:25;;;;;;;2.75;2.20;;;21.80;35.50;;;;;;6291862;27;35071;-40
2022/03/28 05:18:30;;;;;;;2.35;1.92;;;21.70;35.40;;;;;;6307373;27;20046;-40
2022/03/28 05:21:32;;;;;;;2.60;2.10;;;21.80;35.40;;;;;;6317825;27;31199;-42
2022/03/28 05:24:34;;;;;;;2.50;2.10;;;21.70;35.40;;;;;;6315646;27;20039;-39
2022/03/28 05:27:42;;;;;;;2.80;2.50;;;21.70;35.40;;;;;;6309215;27;27442;-41
2022/03/28 05:30:43;;;;;;;2.42;2.03;;;21.70;35.40;;;;;;6317480;27;20360;-39
2022/03/28 05:33:46;;;;;;;7.00;2.53;;;21.70;35.40;;;;;;6315018;27;20312;-43
2022/03/28 05:36:47;;;;;;;2.42;1.90;;;21.70;35.40;;;;;;6304198;27;20482;-39
2022/03/28 05:39:50;;;;;;;2.20;2.00;;;21.60;35.40;;;;;;6306788;27;20066;-39
2022/03/28 05:42:52;;;;;;;2.65;2.22;;;21.70;35.40;;;;;;6314774;27;20155;-39
2022/03/28 05:45:53;;;;;;;1.95;1.75;;;22.00;35.50;;;;;;6311984;27;20865;-40
2022/03/28 05:48:55;;;;;;;2.22;1.85;;;21.70;35.30;;;;;;6305366;27;20200;-40
2022/03/28 05:51:56;;;;;;;1.67;1.48;;;21.80;35.40;;;;;;6313472;27;20129;-39
2022/03/28 05:54:58;;;;;;;;;;;21.90;35.30;;;;;;6283817;27;20060;-40
2022/03/28 05:58:00;;;;;;;1.70;1.60;;;21.90;35.20;;;;;;6291455;27;22962;-40
2022/03/28 06:01:01;;;;;;;;;;;21.90;35.20;;;;;;6302721;27;20217;-40
2022/03/28 06:04:04;;;;;;;1.95;1.60;;;21.90;35.10;;;;;;6303848;27;23228;-40
2022/03/28 06:07:06;;;;;;;1.65;1.30;;;21.90;35.10;;;;;;6281868;27;20051;-39
2022/03/28 06:10:09;;;;;;;2.20;2.00;;;22.00;35.10;;;;;;6296723;27;21007;-41
2022/03/28 06:13:12;;;;;;;1.75;1.30;;;22.00;35.10;;;;;;6284948;27;20066;-40
2022/03/28 06:16:14;;;;;;;1.60;1.50;;;22.00;35.10;;;;;;6264239;27;20901;-39
2022/03/28 06:19:17;;;;;;;1.67;1.52;;;22.00;35.00;;;;;;6265477;27;20043;-40
2022/03/28 06:22:19;;;;;;;1.90;1.70;;;22.00;35.00;;;;;;6291437;27;23093;-40
2022/03/28 06:25:22;;;;;;;1.80;1.38;;;22.10;35.10;;;;;;6278169;27;20047;-41
2022/03/28 06:28:34;;;;;;;4.55;3.85;;;22.10;35.00;;;;;;6290406;27;20141;-40
2022/03/28 06:31:36;;;;;;;3.72;3.25;;;22.10;35.10;;;;;;6271182;27;20039;-40
2022/03/28 06:34:39;;;;;;;2.92;2.55;;;22.00;34.90;;;;;;6270374;27;20844;-41
2022/03/28 06:37:41;;;;;;;3.13;2.45;;;22.10;35.00;;;;;;6269640;27;22737;-41
2022/03/28 06:40:43;;;;;;;3.05;2.40;;;22.20;35.00;;;;;;6259886;27;23369;-41
2022/03/28 06:43:44;;;;;;;2.50;2.30;;;22.10;34.90;;;;;;6252541;27;20038;-40
2022/03/28 06:46:46;;;;;;;3.58;2.33;;;22.30;35.00;;;;;;6239264;27;20249;-41
2022/03/28 06:49:48;;;;;;;4.07;2.92;;;22.30;34.90;;;;;;6232053;27;20162;-41
2022/03/28 06:52:49;;;;;;;3.80;2.85;;;22.30;34.90;;;;;;6238875;27;20046;-40
2022/03/28 06:55:52;;;;;;;3.78;2.97;;;22.40;35.10;;;;;;6198957;27;20041;-42
2022/03/28 06:58:55;;;;;;;4.35;2.53;;;22.40;35.00;;;;;;6177292;27;20100;-40
2022/03/28 07:01:57;;;;;;;3.60;2.75;;;22.30;34.90;;;;;;6169656;27;20035;-43
2022/03/28 07:04:58;;;;;;;3.58;2.72;;;22.40;35.00;;;;;;6180975;27;20036;-44
2022/03/28 07:08:00;;;;;;;4.07;2.63;;;22.50;34.90;;;;;;6133698;27;20844;-40
2022/03/28 07:11:02;;;;;;;3.70;2.83;;;22.50;34.90;;;;;;6188404;27;20043;-40
2022/03/28 07:14:04;;;;;;;3.92;2.58;;;22.50;34.90;;;;;;6173949;27;31581;-40
2022/03/28 07:17:05;;;;;;;5.22;2.63;;;22.60;34.90;;;;;;6181573;27;20043;-39
2022/03/28 07:20:09;;;;;;;3.83;2.30;;;22.50;34.90;;;;;;6170526;27;20186;-42
2022/03/28 07:23:12;;;;;;;2.35;2.15;;;22.60;34.90;;;;;;6179172;27;20039;-41
2022/03/28 07:26:14;;;;;;;2.03;1.83;;;22.60;35.00;;;;;;6180081;27;20162;-40
2022/03/28 07:29:17;;;;;;;2.95;1.90;;;22.60;35.00;;;;;;6188756;27;20031;-42
2022/03/28 07:32:18;;;;;;;2.72;2.00;;;22.60;35.10;;;;;;6114490;27;20047;-42
2022/03/28 07:35:21;;;;;;;4.75;3.58;;;22.60;35.40;;;;;;6120447;27;20092;-44
2022/03/28 07:38:22;;;;;;;4.18;3.10;;;22.60;35.50;;;;;;6146610;27;20079;-47
2022/03/28 07:41:25;;;;;;;3.85;2.42;;;22.50;35.70;;;;;;6129657;27;34362;-41
2022/03/28 07:44:26;;;;;;;4.13;2.40;;;22.50;35.70;;;;;;6098646;27;45441;-42
2022/03/28 07:47:28;;;;;;;2.28;2.08;;;22.50;35.90;;;;;;6136566;27;31077;-44
2022/03/28 07:50:30;;;;;;;2.67;1.80;;;22.60;36.00;;;;;;6119684;27;21071;-40
2022/03/28 07:53:32;;;;;;;3.45;1.77;;;22.60;35.90;;;;;;6128657;27;30490;-41
2022/03/28 07:56:35;;;;;;;2.50;2.08;;;22.70;35.90;;;;;;6145539;27;20097;-42
2022/03/28 07:59:43;;;;;;;1.70;1.60;;;22.70;35.70;;;;;;6121721;27;33883;-43
2022/03/28 08:02:45;;;;;;;2.40;1.58;;;22.70;35.60;;;;;;6107607;27;20154;-42
2022/03/28 08:05:47;;;;;;;2.30;2.05;;;22.80;35.60;;;;;;6115455;27;20370;-43
2022/03/28 08:08:48;;;;;;;2.67;1.60;;;22.80;35.50;;;;;;6123307;27;20538;-44
2022/03/28 08:11:51;;;;;;;1.40;1.30;;;22.80;35.40;;;;;;6159718;27;20039;-44
2022/03/28 08:14:53;;;;;;;1.90;1.60;;;22.90;35.50;;;;;;6169264;27;20031;-42
2022/03/28 08:17:59;;;;;;;2.20;2.00;;;22.90;35.50;;;;;;6172669;27;39082;-43
2022/03/28 08:21:00;;;;;;;2.08;1.50;;;23.00;35.60;;;;;;6146474;27;20039;-42
2022/03/28 08:24:02;;;;;;;2.45;1.55;;;22.90;35.40;;;;;;6172635;27;21635;-42
2022/03/28 08:27:06;;;;;;;2.60;1.63;;;23.00;35.50;;;;;;6164978;27;22529;-42
2022/03/28 08:30:09;;;;;;;1.92;1.48;;;23.00;35.40;;;;;;6159282;27;22315;-42
2022/03/28 08:33:10;;;;;;;2.20;2.00;;;23.00;35.50;;;;;;6153142;27;20047;-45
2022/03/28 08:36:12;;;;;;;1.90;1.35;;;23.00;35.50;;;;;;6125216;27;20865;-44
2022/03/28 08:39:14;;;;;;;2.30;1.80;;;23.10;35.60;;;;;;6146516;27;20162;-42
2022/03/28 08:42:17;;;;;;;2.85;1.40;;;23.10;35.50;;;;;;6151120;27;20034;-42
2022/03/28 08:45:19;;;;;;;2.38;1.50;;;23.10;35.50;;;;;;6155850;27;20157;-42
2022/03/28 08:48:20;;;;;;;1.70;1.60;;;23.10;35.50;;;;;;6155727;27;20142;-42
2022/03/28 08:51:22;;;;;;;1.48;1.38;;;23.20;35.70;;;;;;6130356;27;24573;-46
2022/03/28 08:54:24;;;;;;;2.47;1.20;;;23.20;35.70;;;;;;6150594;27;20066;-43
2022/03/28 08:57:26;;;;;;;2.25;1.40;;;23.20;35.70;;;;;;6122269;27;21699;-42
2022/03/28 09:00:27;;;;;;;1.95;1.35;;;23.20;35.80;;;;;;6133596;27;20049;-45
2022/03/28 09:03:38;;;;;;;1.38;1.27;;;23.30;35.90;;;;;;6125287;27;20056;-43
2022/03/28 09:06:42;;;;;;;2.47;1.47;;;23.20;36.10;;;;;;6116638;27;20087;-43
2022/03/28 09:09:56;;;;;;;2.35;1.38;;;23.30;36.10;;;;;;6101465;27;20373;-44
2022/03/28 09:13:01;;;;;;;1.52;1.15;;;23.20;36.10;;;;;;6127635;27;20161;-43
2022/03/28 09:16:07;;;;;;;1.60;1.38;;;23.30;36.20;;;;;;6116292;27;22553;-43
2022/03/28 09:19:10;;;;;;;1.75;1.40;;;23.30;36.30;;;;;;6138308;27;20046;-44
2022/03/28 09:22:13;;;;;;;1.58;1.40;;;23.30;36.50;;;;;;6107009;27;20356;-44
2022/03/28 09:25:18;;;;;;;1.88;1.30;;;23.30;36.40;;;;;;6130586;27;20081;-43
2022/03/28 09:28:25;;;;;;;1.40;1.17;;;23.30;36.40;;;;;;6118011;27;20047;-43
2022/03/28 09:31:30;;;;;;;1.50;1.15;;;23.40;36.60;;;;;;6111540;27;20097;-43
2022/03/28 09:34:31;;;;;;;1.95;1.05;;;23.40;36.60;;;;;;6111469;27;20043;-43
2022/03/28 09:37:51;;;;;;;1.20;1.08;;;23.40;36.70;;;;;;6106582;27;20038;-43
2022/03/28 09:40:53;;;;;;;1.90;1.30;;;23.30;36.70;;;;;;6116706;27;20054;-42
2022/03/28 09:43:56;;;;;;;1.45;1.20;;;23.40;36.80;;;;;;6108824;27;20045;-43
2022/03/28 09:47:06;;;;;;;1.30;1.17;;;23.40;36.80;;;;;;6115453;27;21910;-46
2022/03/28 09:50:08;;;;;;;1.95;1.38;;;23.40;36.90;;;;;;6135379;27;20071;-44
2022/03/28 09:53:17;;;;;;;1.83;1.40;;;23.60;37.00;;;;;;6120015;27;45288;-44
2022/03/28 09:56:18;;;;;;;1.98;1.40;;;23.50;37.00;;;;;;6082419;27;20039;-45
2022/03/28 09:59:21;;;;;;;1.90;1.40;;;23.50;37.00;;;;;;6090610;27;20170;-44
2022/03/28 10:02:25;;;;;;;1.73;1.50;;;23.50;37.10;;;;;;6136264;27;20043;-44
2022/03/28 10:05:28;;;;;;;1.75;1.40;;;23.50;37.80;;;;;;6119997;27;47330;-43
2022/03/28 10:08:30;;;;;;;1.77;1.48;;;23.50;37.20;;;;;;6127423;27;33010;-44
2022/03/28 10:11:32;;;;;;;2.97;1.73;;;23.50;37.30;;;;;;6161726;27;33236;-43
2022/03/28 10:14:35;;;;;;;2.03;1.50;;;23.60;37.30;;;;;;6169801;27;42271;-43
2022/03/28 10:17:36;;;;;;;1.92;1.40;;;23.50;37.30;;;;;;6137037;27;20097;-46
2022/03/28 10:20:42;;;;;;;2.28;1.65;;;23.60;37.40;;;;;;6170225;27;27353;-43
2022/03/28 10:23:49;;;;;;;1.77;1.20;;;23.60;37.60;;;;;;6134714;27;20039;-42
2022/03/28 10:26:53;;;;;;;1.70;1.40;;;23.60;37.80;;;;;;6147002;27;40647;-44
2022/03/28 10:30:10;;;;;;;1.75;1.35;;;23.50;37.60;;;;;;6190811;27;20055;-45
2022/03/28 10:33:14;;;;;;;1.88;1.13;;;23.70;37.80;;;;;;6167690;27;20157;-43
2022/03/28 10:36:27;;;;;;;1.77;1.40;;;23.60;37.70;;;;;;6178522;27;20043;-43
2022/03/28 10:39:36;;;;;;;1.30;1.15;;;23.70;37.70;;;;;;6181078;27;20176;-43
2022/03/28 10:42:39;;;;;;;1.15;1.05;;;23.70;37.70;;;;;;6208558;27;20046;-44
2022/03/28 10:45:46;;;;;;;1.40;1.10;;;23.80;37.80;;;;;;6210141;27;38372;-43
2022/03/28 10:48:54;;;;;;;1.65;1.38;;;23.80;37.90;;;;;;6199769;27;20045;-43
2022/03/28 10:51:59;;;;;;;2.08;1.52;;;23.70;37.80;;;;;;6231601;27;20069;-43
2022/03/28 10:55:06;;;;;;;1.70;1.40;;;23.80;37.90;;;;;;6235175;27;20636;-44
2022/03/28 10:58:12;;;;;;;2.47;1.50;;;23.70;37.80;;;;;;6181932;27;20091;-42
2022/03/28 11:01:25;;;;;;;2.30;1.73;;;23.80;37.80;;;;;;6197423;27;20047;-48
2022/03/28 11:04:27;;;;;;;2.35;2.08;;;23.80;37.70;;;;;;6209651;27;20051;-43
2022/03/28 11:07:29;;;;;;;2.55;1.70;;;23.80;37.70;;;;;;6218888;27;20249;-45
2022/03/28 11:10:33;;;;;;;2.33;1.90;;;23.80;37.60;;;;;;6226167;27;20421;-43
2022/03/28 11:13:34;;;;;;;1.75;1.55;;;23.90;37.70;;;;;;6211857;27;20035;-43
2022/03/28 11:16:49;;;;;;;3.05;1.80;;;23.80;37.60;;;;;;6235499;27;20054;-45
2022/03/28 11:19:53;;;;;;;3.45;1.85;;;23.80;37.70;;;;;;6204726;27;22786;-43
2022/03/28 11:22:56;;;;;;;3.20;2.00;;;23.80;37.80;;;;;;6199429;27;20045;-43
2022/03/28 11:25:59;;;;;;;4.35;1.70;;;23.80;37.70;;;;;;6231053;27;20047;-44
2022/03/28 11:29:05;;;;;;;2.72;1.67;;;23.90;37.70;;;;;;6224988;27;20146;-43
2022/03/28 11:32:08;;;;;;;2.13;1.65;;;23.90;37.80;;;;;;6198081;27;21814;-43
2022/03/28 11:35:13;;;;;;;1.88;1.60;;;23.90;37.90;;;;;;6190739;27;20056;-45
2022/03/28 11:38:19;;;;;;;1.83;1.50;;;23.90;37.90;;;;;;6192873;27;20176;-43
2022/03/28 11:41:24;;;;;;;2.63;1.70;;;23.90;37.80;;;;;;6167422;27;20043;-48
2022/03/28 11:44:27;;;;;;;2.25;1.70;;;23.90;37.80;;;;;;6194571;27;20115;-46
2022/03/28 11:47:29;;;;;;;2.75;2.10;;;24.00;37.90;;;;;;6177965;27;20118;-48
2022/03/28 11:50:32;;;;;;;2.22;1.45;;;24.00;37.80;;;;;;6142164;27;22925;-47
2022/03/28 11:53:34;;;;;;;2.33;1.88;;;24.00;38.30;;;;;;6180860;27;20053;-46
2022/03/28 11:58:14;;;;;;;3.03;1.80;;;24.00;37.60;;;;;;6171916;27;20043;-44
2022/03/28 12:00:00;;;;;;;2.08;1.73;;;24.00;37.50;;;;;;6121055;27;20049;-45
2022/03/28 12:03:03;;;;;;;2.80;1.98;;;24.00;37.30;;;;;;6102275;27;20045;-46
2022/03/28 12:06:05;;;;;;;3.90;1.92;;;24.00;37.30;;;;;;6076590;27;20043;-47
2022/03/28 12:09:07;;;;;;;2.78;1.80;;;24.10;37.30;;;;;;6137148;27;20160;-46
2022/03/28 12:12:09;;;;;;;2.97;1.95;;;24.10;37.20;;;;;;6114155;27;20066;-46
2022/03/28 12:15:23;;;;;;;3.25;1.98;;;24.10;37.10;;;;;;6138335;27;20042;-45
2022/03/28 12:18:30;;;;;;;4.13;2.15;;;24.10;37.20;;;;;;6158366;27;22139;-46
2022/03/28 12:21:34;;;;;;;4.18;2.03;;;24.10;37.10;;;;;;6139460;27;20103;-47
2022/03/28 12:24:35;;;;;;;3.17;1.85;;;24.10;37.10;;;;;;6140667;27;20460;-47
2022/03/28 12:27:38;;;;;;;3.40;1.77;;;24.10;37.00;;;;;;6106528;27;20053;-46
2022/03/28 12:30:42;;;;;;;2.60;1.70;;;24.10;36.90;;;;;;6109437;27;21518;-46
2022/03/28 12:33:47;;;;;;;2.38;2.00;;;24.00;36.70;;;;;;6126764;27;20120;-47
2022/03/28 12:36:49;;;;;;;2.17;1.67;;;24.10;36.70;;;;;;6119729;27;20155;-45
2022/03/28 12:39:52;;;;;;;2.55;1.45;;;24.10;36.60;;;;;;6105048;27;20044;-46
2022/03/28 12:42:54;;;;;;;2.30;1.83;;;24.10;36.40;;;;;;6103262;27;20050;-41
2022/03/28 12:45:58;;;;;;;3.08;1.92;;;24.10;36.90;;;;;;6122192;27;20036;-44
2022/03/28 12:49:08;;;;;;;3.38;1.80;;;24.10;36.20;;;;;;6114103;27;20037;-45
2022/03/28 12:52:11;;;;;;;1.77;1.58;;;24.10;36.10;;;;;;6131784;27;21249;-47
2022/03/28 12:55:12;;;;;;;2.35;1.63;;;24.10;36.00;;;;;;6148481;27;21728;-45
2022/03/28 12:58:14;;;;;;;2.35;1.60;;;24.20;36.10;;;;;;6144922;27;20759;-46
2022/03/28 13:01:21;;;;;;;3.75;1.65;;;24.20;36.10;;;;;;6122843;27;20079;-46
2022/03/28 13:04:24;;;;;;;1.88;1.55;;;24.20;35.70;;;;;;6128449;27;20039;-43
2022/03/28 13:07:28;;;;;;;4.40;1.90;;;24.20;35.60;;;;;;6107544;27;20128;-46
2022/03/28 13:10:34;;;;;;;2.97;1.73;;;24.40;35.50;;;;;;6122328;27;20066;-47
2022/03/28 13:13:35;;;;;;;2.15;1.50;;;24.20;35.40;;;;;;6116455;27;20036;-46
2022/03/28 13:16:37;;;;;;;2.80;1.55;;;24.10;34.90;;;;;;6129343;27;20095;-47
2022/03/28 13:19:41;;;;;;;2.53;1.70;;;24.30;35.00;;;;;;6112985;27;20039;-46
2022/03/28 13:22:45;;;;;;;2.28;1.73;;;24.30;34.90;;;;;;6091588;27;20066;-44
2022/03/28 13:25:48;;;;;;;2.80;1.60;;;24.30;34.90;;;;;;6129987;27;20051;-48
2022/03/28 13:28:50;;;;;;;3.38;1.75;;;24.30;34.70;;;;;;6146830;27;21076;-43
2022/03/28 13:31:53;;;;;;;2.30;1.50;;;24.40;34.60;;;;;;6136053;27;20047;-48
2022/03/28 13:34:55;;;;;;;2.10;1.35;;;24.20;34.40;;;;;;6107019;27;20062;-47
2022/03/28 13:37:59;;;;;;;1.90;1.20;;;24.30;34.40;;;;;;6120604;27;20079;-47
2022/03/28 13:41:00;;;;;;;2.78;1.70;;;24.30;34.40;;;;;;6138406;27;20050;-46
2022/03/28 13:44:02;;;;;;;2.20;1.45;;;24.30;34.30;;;;;;6131201;27;21604;-48
2022/03/28 13:47:05;;;;;;;3.10;1.85;;;24.40;34.30;;;;;;6108407;27;20178;-46
2022/03/28 13:50:08;;;;;;;2.83;2.05;;;24.40;34.30;;;;;;6135928;27;20040;-43
2022/03/28 13:53:12;;;;;;;3.72;2.13;;;24.30;34.10;;;;;;6133377;27;21287;-45
2022/03/28 13:56:13;;;;;;;2.85;2.00;;;24.40;34.20;;;;;;6136521;27;20193;-45
2022/03/28 13:59:15;;;;;;;2.90;1.70;;;24.30;33.90;;;;;;6147633;27;20039;-45
2022/03/28 14:02:18;;;;;;;2.55;1.40;;;24.40;33.90;;;;;;6107412;27;20097;-45
2022/03/28 14:05:21;;;;;;;2.75;1.63;;;24.40;34.10;;;;;;6081022;27;20039;-46
2022/03/28 14:08:24;;;;;;;3.03;2.15;;;24.30;33.80;;;;;;6119417;27;20039;-43
2022/03/28 14:11:26;;;;;;;2.55;1.77;;;24.30;33.70;;;;;;6117365;27;23239;-42
2022/03/28 14:14:30;;;;;;;3.47;1.70;;;24.40;33.80;;;;;;6116890;27;20075;-46
2022/03/28 14:17:41;;;;;;;3.03;2.17;;;24.30;33.70;;;;;;6100171;27;20946;-45
2022/03/28 14:20:47;;;;;;;2.85;1.60;;;24.30;33.30;;;;;;6024324;27;20133;-42
2022/03/28 14:23:52;;;;;;;2.72;1.52;;;24.40;33.20;;;;;;6058613;28;20122;-43
2022/03/28 14:26:55;;;;;;;4.50;1.50;;;24.40;33.20;;;;;;6052805;28;20059;-46
2022/03/28 14:30:00;;;;;;;2.60;1.70;;;24.40;33.20;;;;;;6080758;28;20050;-45
2022/03/28 14:33:03;;;;;;;2.65;1.77;;;24.40;33.00;;;;;;6079982;28;20054;-41
2022/03/28 14:36:07;;;;;;;2.25;1.58;;;24.40;32.90;;;;;;6079695;28;20157;-44
2022/03/28 14:39:09;;;;;;;3.28;1.38;;;24.40;32.80;;;;;;6111677;28;20702;-44
2022/03/28 14:42:11;;;;;;;2.70;1.58;;;24.40;32.80;;;;;;6079284;28;20158;-43
2022/03/28 14:45:17;;;;;;;2.92;1.50;;;24.50;32.70;;;;;;6088212;28;20208;-43
2022/03/28 14:48:18;;;;;;;3.25;1.80;;;24.50;32.60;;;;;;6070515;28;20167;-43
2022/03/28 14:51:21;;;;;;;2.80;1.60;;;24.40;32.50;;;;;;6081290;28;20105;-44
2022/03/28 14:54:23;;;;;;;3.55;1.70;;;24.50;32.80;;;;;;6081229;28;21848;-46
2022/03/28 14:57:26;;;;;;;2.47;1.50;;;24.50;32.40;;;;;;6094347;28;20075;-48
2022/03/28 15:00:28;;;;;;;2.08;1.55;;;24.50;32.30;;;;;;6106201;28;20217;-46
2022/03/28 15:03:29;;;;;;;2.22;1.50;;;24.50;32.20;;;;;;6050247;28;20184;-45
2022/03/28 15:06:36;;;;;;;2.95;1.65;;;24.50;32.30;;;;;;6086712;28;20233;-44
2022/03/28 15:09:37;;;;;;;3.75;1.98;;;24.50;32.20;;;;;;6081009;27;20174;-44
2022/03/28 15:12:39;;;;;;;2.90;1.80;;;24.50;32.30;;;;;;6133490;27;20047;-44
2022/03/28 15:15:41;;;;;;;2.90;1.27;;;24.50;32.40;;;;;;6122926;27;20353;-42
2022/03/28 15:18:43;;;;;;;3.95;1.85;;;24.50;32.40;;;;;;6126548;27;20039;-43
2022/03/28 15:21:46;;;;;;;2.17;1.83;;;24.50;32.40;;;;;;6137360;27;20043;-42
2022/03/28 15:24:48;;;;;;;3.35;1.38;;;24.50;32.40;;;;;;6154990;27;20036;-46
2022/03/28 15:27:50;;;;;;;2.80;1.60;;;24.50;32.30;;;;;;6146890;27;20046;-44
2022/03/28 15:31:21;;;;;;;2.17;1.70;;;24.60;32.90;;;;;;6157153;27;20639;-42
2022/03/28 15:34:24;;;;;;;;;;;24.60;32.30;;;;;;6162616;27;20147;-43
2022/03/28 15:37:29;;;;;;;2.40;1.70;;;24.50;32.30;;;;;;6189092;27;19931;-42
2022/03/28 15:40:30;;;;;;;2.95;1.60;;;24.60;32.30;;;;;;6194632;27;20055;-43
2022/03/28 15:43:33;;;;;;;4.05;1.90;;;24.60;32.30;;;;;;6195012;27;20146;-44
2022/03/28 15:46:35;;;;;;;1.63;1.10;;;24.50;32.30;;;;;;6153934;27;20053;-44
2022/03/28 15:49:37;;;;;;;1.95;1.05;;;24.60;32.80;;;;;;6176951;27;20128;-42
2022/03/28 15:52:39;;;;;;;2.33;0.70;;;24.50;32.30;;;;;;6190168;27;20041;-45
2022/03/28 15:55:41;;;;;;;0.75;0.70;;;24.60;32.40;;;;;;6208522;27;20173;-44
2022/03/28 15:58:43;;;;;;;1.42;1.02;;;24.50;32.40;;;;;;6209803;27;20039;-46